Time,TemperatureF,DewpointF,PressureIn,WindDirection,WindDirectionDegrees,WindSpeedMPH,WindSpeedGustMPH,Humidity,HourlyPrecipIn,Conditions,Clouds,dailyrainin,SoftwareType,DateUTC
2017-03-24 00:06:00,39.9,37.0,30.29,South,169,4.0,6.0,89,0.00,,,0.00,weatherlink.com 1.10,2017-03-24 00:06:00,
2017-03-24 00:21:00,39.8,37.0,30.29,WNW,290,1.0,9.0,90,0.00,,,0.00,weatherlink.com 1.10,2017-03-24 00:21:00,
2017-03-24 00:36:00,39.8,37.0,30.29,WNW,301,2.0,6.0,90,0.00,,,0.00,weatherlink.com 1.10,2017-03-24 00:36:00,
2017-03-24 00:51:00,39.8,37.0,30.29,SSW,202,0.0,7.0,90,0.00,,,0.00,weatherlink.com 1.10,2017-03-24 00:51:00,
2017-03-24 01:07:00,39.5,37.0,30.29,SSE,153,1.0,6.0,90,0.00,,,0.00,weatherlink.com 1.10,2017-03-24 01:07:00,
2017-03-24 01:22:00,39.6,37.0,30.29,NW,325,1.0,9.0,91,0.00,,,0.00,weatherlink.com 1.10,2017-03-24 01:22:00,
2017-03-24 01:37:00,39.6,37.0,30.30,WSW,243,3.0,12.0,91,0.00,,,0.00,weatherlink.com 1.10,2017-03-24 01:37:00,
2017-03-24 01:52:00,39.2,37.0,30.30,WNW,292,1.0,6.0,91,0.00,,,0.00,weatherlink.com 1.10,2017-03-24 01:52:00,
2017-03-24 02:07:00,39.0,37.0,30.30,WSW,250,0.0,9.0,92,0.00,,,0.00,weatherlink.com 1.10,2017-03-24 02:07:00,
2017-03-24 02:22:00,39.0,37.0,30.31,SW,224,3.0,10.0,92,0.00,,,0.00,weatherlink.com 1.10,2017-03-24 02:22:00,
2017-03-24 02:37:00,38.8,37.0,30.31,SSW,207,1.0,11.0,92,0.00,,,0.00,weatherlink.com 1.10,2017-03-24 02:37:00,
2017-03-24 02:52:00,38.9,37.0,30.31,SSW,199,0.0,8.0,93,0.00,,,0.00,weatherlink.com 1.10,2017-03-24 02:52:00,
2017-03-24 03:07:00,38.9,37.0,30.31,West,259,1.0,9.0,93,0.00,,,0.00,weatherlink.com 1.10,2017-03-24 03:07:00,
2017-03-24 03:22:00,39.2,37.0,30.32,WNW,285,1.0,8.0,93,0.00,,,0.00,weatherlink.com 1.10,2017-03-24 03:22:00,
2017-03-24 03:37:00,39.3,38.0,30.31,NW,314,1.0,8.0,93,0.00,,,0.00,weatherlink.com 1.10,2017-03-24 03:37:00,
2017-03-24 03:52:00,39.3,38.0,30.32,ESE,116,3.0,9.0,93,0.00,,,0.00,weatherlink.com 1.10,2017-03-24 03:52:00,
2017-03-24 04:07:00,39.3,37.0,30.32,SSE,150,4.0,7.0,92,0.00,,,0.00,weatherlink.com 1.10,2017-03-24 04:07:00,
2017-03-24 04:22:00,39.3,37.0,30.32,WSW,257,1.0,8.0,92,0.00,,,0.00,weatherlink.com 1.10,2017-03-24 04:22:00,
2017-03-24 04:37:00,39.2,37.0,30.32,South,171,5.0,8.0,92,0.00,,,0.00,weatherlink.com 1.10,2017-03-24 04:37:00,
2017-03-24 04:52:00,39.0,37.0,30.33,West,272,0.0,7.0,93,0.00,,,0.00,weatherlink.com 1.10,2017-03-24 04:52:00,
2017-03-24 05:07:00,38.9,37.0,30.33,WSW,244,4.0,7.0,93,0.00,,,0.00,weatherlink.com 1.10,2017-03-24 05:07:00,
2017-03-24 05:22:00,38.7,37.0,30.33,WNW,299,1.0,7.0,93,0.00,,,0.00,weatherlink.com 1.10,2017-03-24 05:22:00,
2017-03-24 05:37:00,38.7,37.0,30.34,SSW,206,1.0,5.0,93,0.00,,,0.00,weatherlink.com 1.10,2017-03-24 05:37:00,
2017-03-24 05:52:00,38.7,37.0,30.34,SSW,213,1.0,8.0,93,0.00,,,0.00,weatherlink.com 1.10,2017-03-24 05:52:00,
2017-03-24 06:07:00,38.8,37.0,30.35,WSW,255,2.0,9.0,93,0.00,,,0.00,weatherlink.com 1.10,2017-03-24 06:07:00,
2017-03-24 06:22:00,38.7,37.0,30.36,West,265,1.0,4.0,93,0.00,,,0.00,weatherlink.com 1.10,2017-03-24 06:22:00,
2017-03-24 06:37:00,38.9,37.0,30.36,WSW,250,3.0,6.0,94,0.00,,,0.00,weatherlink.com 1.10,2017-03-24 06:37:00,
2017-03-24 06:52:00,39.1,38.0,30.37,SSW,205,4.0,9.0,94,0.00,,,0.00,weatherlink.com 1.10,2017-03-24 06:52:00,
2017-03-24 07:07:00,39.5,38.0,30.37,WSW,244,0.0,6.0,93,0.00,,,0.00,weatherlink.com 1.10,2017-03-24 07:07:00,
2017-03-24 07:22:00,40.1,38.0,30.39,WSW,248,0.0,9.0,93,0.00,,,0.00,weatherlink.com 1.10,2017-03-24 07:22:00,
2017-03-24 07:53:00,41.7,39.0,30.40,NE,48,1.0,6.0,91,0.00,,,0.00,weatherlink.com 1.10,2017-03-24 07:53:00,
2017-03-24 08:07:00,42.1,39.0,30.41,SW,222,3.0,10.0,89,0.00,,,0.00,weatherlink.com 1.10,2017-03-24 08:07:00,
2017-03-24 08:22:00,42.2,39.0,30.42,SE,139,5.0,7.0,89,0.00,,,0.00,weatherlink.com 1.10,2017-03-24 08:22:00,
2017-03-24 08:37:00,42.6,39.0,30.41,WSW,252,7.0,9.0,88,0.00,,,0.00,weatherlink.com 1.10,2017-03-24 08:37:00,
2017-03-24 08:53:00,43.2,40.0,30.42,SSW,205,2.0,11.0,87,0.00,,,0.00,weatherlink.com 1.10,2017-03-24 08:53:00,
2017-03-24 09:08:00,43.6,40.0,30.42,ESE,109,2.0,8.0,87,0.00,,,0.00,weatherlink.com 1.10,2017-03-24 09:08:00,
2017-03-24 09:23:00,44.0,40.0,30.43,South,177,1.0,12.0,86,0.00,,,0.00,weatherlink.com 1.10,2017-03-24 09:23:00,
2017-03-24 09:38:00,45.3,41.0,30.42,SSW,195,2.0,8.0,85,0.00,,,0.00,weatherlink.com 1.10,2017-03-24 09:38:00,
2017-03-24 09:53:00,47.0,42.0,30.43,South,177,2.0,4.0,83,0.00,,,0.00,weatherlink.com 1.10,2017-03-24 09:53:00,
2017-03-24 10:08:00,48.5,42.0,30.42,SSE,165,3.0,8.0,78,0.00,,,0.00,weatherlink.com 1.10,2017-03-24 10:08:00,
2017-03-24 10:23:00,49.4,41.0,30.42,West,270,6.0,8.0,74,0.00,,,0.00,weatherlink.com 1.10,2017-03-24 10:23:00,
2017-03-24 10:38:00,50.3,42.0,30.43,West,278,1.0,9.0,72,0.00,,,0.00,weatherlink.com 1.10,2017-03-24 10:38:00,
2017-03-24 10:53:00,51.6,41.0,30.43,ESE,105,2.0,7.0,68,0.00,,,0.00,weatherlink.com 1.10,2017-03-24 10:53:00,
2017-03-24 11:08:00,52.5,41.0,30.42,NE,44,3.0,9.0,65,0.00,,,0.00,weatherlink.com 1.10,2017-03-24 11:08:00,
2017-03-24 11:23:00,52.5,41.0,30.43,South,189,3.0,11.0,64,0.00,,,0.00,weatherlink.com 1.10,2017-03-24 11:23:00,
2017-03-24 11:38:00,53.3,40.0,30.44,NNW,342,4.0,10.0,61,0.00,,,0.00,weatherlink.com 1.10,2017-03-24 11:38:00,
2017-03-24 11:53:00,54.4,40.0,30.44,WNW,286,3.0,6.0,59,0.00,,,0.00,weatherlink.com 1.10,2017-03-24 11:53:00,
2017-03-24 12:23:00,55.1,39.0,30.44,NW,311,1.0,8.0,56,0.00,,,0.00,weatherlink.com 1.10,2017-03-24 12:23:00,
2017-03-24 12:38:00,55.8,40.0,30.44,NW,316,3.0,10.0,55,0.00,,,0.00,weatherlink.com 1.10,2017-03-24 12:38:00,
2017-03-24 12:53:00,55.6,39.0,30.43,WSW,242,2.0,12.0,55,0.00,,,0.00,weatherlink.com 1.10,2017-03-24 12:53:00,